Airfield :







YOU CAN JOIN US ON...

 
LOGIN :

Register | Disclaimer

   EN    FR    IT 

 









Legend :    VFR   Marginal VFR   IFR   Intensive IFR   Very Intensive IFR
Visi :
Ceiling :
>= 8 km
>= 3000ft
5 to 8 km
1000 to 3000 ft
1500m to 5 km
500 to 1000 ft
800 to 1500m
200 to 500 ft
< 800m
< 200 ft
Symbols :   Thunderstorms  Fog  Heavy snow  Heavy precipitations  Wind > 20 kt






- Airport Elevation : 232 ft
- IATA code : YQM


CYQM - Greater Moncton International

CURRENT METAR :
  • 250000Z 24011KT 15SM BKN064 12/06 A2943 RMK SC7 SLP969 DENSITY ALT 500FT

EXPIRED METARs :
  • 242300Z 25010KT 15SM BKN059 12/07 A2939 RMK SC7 SLP956 DENSITY ALT 600FT
  • 242200Z 28011G16KT 15SM BKN053 13/06 A2936 RMK SC7 SLP947 DENSITY ALT 700FT

TAF TAF CYQM
Valid from the 25 at 00:00 until the 26 at 00:00 UTC


242340Z 2500/2524 26010G20KT P6SM BKN060
FM250200 25010KT P6SM SCT050
FM250900 25010KT P6SM FEW040
FM251200 25012KT P6SM FEW180
BECMG 2512/2514 23012KT
BECMG 2519/2521 20010KT RMK NXT FCST BY 250600Z
CZQM FIR / North America



MET'MAP, your aeronautical weather chart ! - Copyright ORBIFLY December 2007 - Disclaimer

ORBIFLY MET'MAP TEAM :

Programming & Development : Alexandra Zaïnal
Original concept : Baudouin d'Aumeries
Technical & hardware support : Manuel Goepfert
Assistance : Marc-Olivier Méhu




SOURCES & CREDITS :

   NOAA